sensor_id;sensor_type;location;lat;lon;timestamp;pressure;altitude;pressure_sealevel;temperature;humidity
13954;BME280;7049;49.444;8.522;2023-01-25T00:00:26;80528.88;;;-3.47;100.00
13954;BME280;7049;49.444;8.522;2023-01-25T00:05:28;80526.78;;;-3.47;100.00
13954;BME280;7049;49.444;8.522;2023-01-25T00:10:29;80526.78;;;-3.47;100.00
13954;BME280;7049;49.444;8.522;2023-01-25T00:15:32;80516.31;;;-3.47;100.00
13954;BME280;7049;49.444;8.522;2023-01-25T00:20:34;80518.41;;;-3.47;100.00
13954;BME280;7049;49.444;8.522;2023-01-25T00:25:36;80514.22;;;-3.47;100.00
13954;BME280;7049;49.444;8.522;2023-01-25T00:30:39;80514.22;;;-3.47;100.00
13954;BME280;7049;49.444;8.522;2023-01-25T00:35:42;80507.94;;;-3.47;100.00
13954;BME280;7049;49.444;8.522;2023-01-25T00:40:44;80503.75;;;-3.47;100.00
13954;BME280;7049;49.444;8.522;2023-01-25T00:45:47;80497.47;;;-3.47;100.00
13954;BME280;7049;49.444;8.522;2023-01-25T00:50:49;80493.28;;;-3.47;100.00
13954;BME280;7049;49.444;8.522;2023-01-25T00:55:51;80478.63;;;-3.47;100.00
13954;BME280;7049;49.444;8.522;2023-01-25T01:00:55;80478.63;;;-3.47;100.00
13954;BME280;7049;49.444;8.522;2023-01-25T01:06:00;80482.81;;;-3.47;100.00
13954;BME280;7049;49.444;8.522;2023-01-25T01:11:05;80484.91;;;-3.47;100.00
13954;BME280;7049;49.444;8.522;2023-01-25T01:16:10;80487.00;;;-3.47;100.00
13954;BME280;7049;49.444;8.522;2023-01-25T01:21:13;80478.63;;;-3.47;100.00
13954;BME280;7049;49.444;8.522;2023-01-25T01:26:16;80474.44;;;-3.47;100.00
13954;BME280;7049;49.444;8.522;2023-01-25T01:31:21;80478.63;;;-3.47;100.00
13954;BME280;7049;49.444;8.522;2023-01-25T01:36:25;80472.34;;;-3.47;100.00
13954;BME280;7049;49.444;8.522;2023-01-25T01:41:27;80472.34;;;-3.47;100.00
13954;BME280;7049;49.444;8.522;2023-01-25T01:46:32;80484.91;;;-3.47;100.00
13954;BME280;7049;49.444;8.522;2023-01-25T01:51:43;80484.91;;;-3.47;100.00
13954;BME280;7049;49.444;8.522;2023-01-25T01:56:51;80480.72;;;-3.47;100.00
13954;BME280;7049;49.444;8.522;2023-01-25T02:01:57;80482.81;;;-3.47;100.00
13954;BME280;7049;49.444;8.522;2023-01-25T02:07:02;80472.34;;;-3.47;100.00
13954;BME280;7049;49.444;8.522;2023-01-25T02:12:06;80472.34;;;-3.47;100.00
13954;BME280;7049;49.444;8.522;2023-01-25T02:17:11;80463.97;;;-3.47;100.00
13954;BME280;7049;49.444;8.522;2023-01-25T02:22:15;80463.97;;;-3.47;100.00
13954;BME280;7049;49.444;8.522;2023-01-25T02:27:23;80468.16;;;-3.47;100.00
13954;BME280;7049;49.444;8.522;2023-01-25T02:32:25;80455.59;;;-3.47;100.00
13954;BME280;7049;49.444;8.522;2023-01-25T02:37:26;80459.78;;;-3.47;100.00
13954;BME280;7049;49.444;8.522;2023-01-25T02:42:30;80457.69;;;-3.47;100.00
13954;BME280;7049;49.444;8.522;2023-01-25T02:47:34;80453.50;;;-3.47;100.00
13954;BME280;7049;49.444;8.522;2023-01-25T02:52:36;80457.69;;;-3.47;100.00
13954;BME280;7049;49.444;8.522;2023-01-25T02:57:38;80451.41;;;-3.47;100.00
13954;BME280;7049;49.444;8.522;2023-01-25T03:02:40;80455.59;;;-3.47;100.00
13954;BME280;7049;49.444;8.522;2023-01-25T03:07:42;80453.50;;;-3.47;100.00
13954;BME280;7049;49.444;8.522;2023-01-25T03:12:44;80451.41;;;-3.47;100.00
13954;BME280;7049;49.444;8.522;2023-01-25T03:17:46;80445.13;;;-3.47;100.00
13954;BME280;7049;49.444;8.522;2023-01-25T03:22:47;80443.03;;;-3.47;100.00
13954;BME280;7049;49.444;8.522;2023-01-25T03:27:50;80438.84;;;-3.47;100.00
13954;BME280;7049;49.444;8.522;2023-01-25T03:32:53;80438.84;;;-3.47;100.00
13954;BME280;7049;49.444;8.522;2023-01-25T03:37:55;80436.75;;;-3.47;100.00
13954;BME280;7049;49.444;8.522;2023-01-25T03:42:57;80434.66;;;-3.47;100.00
13954;BME280;7049;49.444;8.522;2023-01-25T03:47:59;80436.75;;;-3.47;100.00
13954;BME280;7049;49.444;8.522;2023-01-25T03:53:00;80436.75;;;-3.47;100.00
13954;BME280;7049;49.444;8.522;2023-01-25T03:58:07;80438.84;;;-3.47;100.00
13954;BME280;7049;49.444;8.522;2023-01-25T04:03:09;80438.84;;;-3.47;100.00
13954;BME280;7049;49.444;8.522;2023-01-25T04:08:10;80443.03;;;-3.47;100.00
13954;BME280;7049;49.444;8.522;2023-01-25T04:13:13;80438.84;;;-3.47;100.00
13954;BME280;7049;49.444;8.522;2023-01-25T04:18:15;80434.66;;;-3.47;100.00
13954;BME280;7049;49.444;8.522;2023-01-25T04:23:17;80428.38;;;-3.47;100.00
13954;BME280;7049;49.444;8.522;2023-01-25T04:28:19;80426.28;;;-3.47;100.00
13954;BME280;7049;49.444;8.522;2023-01-25T04:33:21;80426.28;;;-3.47;100.00
13954;BME280;7049;49.444;8.522;2023-01-25T04:38:23;80428.38;;;-3.47;100.00
13954;BME280;7049;49.444;8.522;2023-01-25T04:43:26;80428.38;;;-3.47;100.00
13954;BME280;7049;49.444;8.522;2023-01-25T04:48:28;80430.47;;;-3.47;100.00
13954;BME280;7049;49.444;8.522;2023-01-25T04:53:30;80426.28;;;-3.47;100.00
13954;BME280;7049;49.444;8.522;2023-01-25T04:58:32;80428.38;;;-3.47;100.00
13954;BME280;7049;49.444;8.522;2023-01-25T05:03:34;80424.19;;;-3.47;100.00
13954;BME280;7049;49.444;8.522;2023-01-25T05:08:35;80422.09;;;-3.47;100.00
13954;BME280;7049;49.444;8.522;2023-01-25T05:13:38;80424.19;;;-3.47;100.00
13954;BME280;7049;49.444;8.522;2023-01-25T05:18:39;80424.19;;;-3.47;100.00
13954;BME280;7049;49.444;8.522;2023-01-25T05:23:41;80420.00;;;-3.47;100.00
13954;BME280;7049;49.444;8.522;2023-01-25T05:28:44;80415.81;;;-3.47;100.00
13954;BME280;7049;49.444;8.522;2023-01-25T05:33:45;80413.72;;;-3.47;100.00
13954;BME280;7049;49.444;8.522;2023-01-25T05:38:47;80411.63;;;-3.47;100.00
13954;BME280;7049;49.444;8.522;2023-01-25T05:43:49;80405.34;;;-3.47;100.00
13954;BME280;7049;49.444;8.522;2023-01-25T05:48:51;80401.16;;;-3.47;100.00
13954;BME280;7049;49.444;8.522;2023-01-25T05:53:53;80401.16;;;-3.47;100.00
13954;BME280;7049;49.444;8.522;2023-01-25T05:59:00;80396.97;;;-3.47;100.00
13954;BME280;7049;49.444;8.522;2023-01-25T06:04:02;80396.97;;;-3.47;100.00
13954;BME280;7049;49.444;8.522;2023-01-25T06:09:05;80396.97;;;-3.47;100.00
13954;BME280;7049;49.444;8.522;2023-01-25T06:14:10;80390.69;;;-3.47;100.00
13954;BME280;7049;49.444;8.522;2023-01-25T06:19:12;80388.59;;;-3.47;100.00
13954;BME280;7049;49.444;8.522;2023-01-25T06:24:13;80396.97;;;-3.47;100.00
13954;BME280;7049;49.444;8.522;2023-01-25T06:29:16;80401.16;;;-3.47;100.00
13954;BME280;7049;49.444;8.522;2023-01-25T06:34:18;80403.25;;;-3.47;100.00
13954;BME280;7049;49.444;8.522;2023-01-25T06:39:22;80405.34;;;-3.47;100.00
13954;BME280;7049;49.444;8.522;2023-01-25T06:44:25;80405.34;;;-3.47;100.00
13954;BME280;7049;49.444;8.522;2023-01-25T06:49:26;80405.34;;;-3.47;100.00
13954;BME280;7049;49.444;8.522;2023-01-25T06:54:29;80411.63;;;-3.47;100.00
13954;BME280;7049;49.444;8.522;2023-01-25T06:59:32;80405.34;;;-3.47;100.00
13954;BME280;7049;49.444;8.522;2023-01-25T07:04:34;80409.53;;;-3.47;100.00
13954;BME280;7049;49.444;8.522;2023-01-25T07:09:36;80403.25;;;-3.47;100.00
13954;BME280;7049;49.444;8.522;2023-01-25T07:14:39;80401.16;;;-3.47;100.00
13954;BME280;7049;49.444;8.522;2023-01-25T07:19:43;80401.16;;;-3.47;100.00
13954;BME280;7049;49.444;8.522;2023-01-25T07:24:44;80399.06;;;-3.47;100.00
13954;BME280;7049;49.444;8.522;2023-01-25T07:29:50;80403.25;;;-3.47;100.00
13954;BME280;7049;49.444;8.522;2023-01-25T07:34:52;80392.78;;;-3.47;100.00
13954;BME280;7049;49.444;8.522;2023-01-25T07:39:53;80399.06;;;-3.47;100.00
13954;BME280;7049;49.444;8.522;2023-01-25T07:45:01;80396.97;;;-3.47;100.00
13954;BME280;7049;49.444;8.522;2023-01-25T07:50:05;80392.78;;;-3.47;100.00
13954;BME280;7049;49.444;8.522;2023-01-25T07:55:07;80396.97;;;-3.47;100.00
13954;BME280;7049;49.444;8.522;2023-01-25T08:00:13;80403.25;;;-3.47;100.00
13954;BME280;7049;49.444;8.522;2023-01-25T08:05:14;80396.97;;;-3.47;100.00
13954;BME280;7049;49.444;8.522;2023-01-25T08:10:16;80401.16;;;-3.47;100.00
13954;BME280;7049;49.444;8.522;2023-01-25T08:15:19;80394.88;;;-3.47;100.00
13954;BME280;7049;49.444;8.522;2023-01-25T08:20:20;80399.06;;;-3.47;100.00
13954;BME280;7049;49.444;8.522;2023-01-25T08:25:23;80399.06;;;-3.47;100.00
13954;BME280;7049;49.444;8.522;2023-01-25T08:30:26;80388.59;;;-3.47;100.00
13954;BME280;7049;49.444;8.522;2023-01-25T08:35:27;80390.69;;;-3.47;100.00
13954;BME280;7049;49.444;8.522;2023-01-25T08:40:29;80382.31;;;-3.47;100.00
13954;BME280;7049;49.444;8.522;2023-01-25T08:45:31;80384.41;;;-3.47;100.00
13954;BME280;7049;49.444;8.522;2023-01-25T08:50:36;80378.13;;;-3.47;100.00
13954;BME280;7049;49.444;8.522;2023-01-25T08:55:37;80376.03;;;-3.47;100.00
13954;BME280;7049;49.444;8.522;2023-01-25T09:00:42;80365.56;;;-3.47;100.00
13954;BME280;7049;49.444;8.522;2023-01-25T09:05:44;80363.47;;;-3.47;100.00
13954;BME280;7049;49.444;8.522;2023-01-25T09:10:45;80357.19;;;-3.47;100.00
13954;BME280;7049;49.444;8.522;2023-01-25T09:15:48;80359.28;;;-3.47;100.00
13954;BME280;7049;49.444;8.522;2023-01-25T09:20:49;80359.28;;;-3.47;100.00
13954;BME280;7049;49.444;8.522;2023-01-25T09:25:55;80353.00;;;-3.47;100.00
13954;BME280;7049;49.444;8.522;2023-01-25T09:31:00;80350.91;;;-3.47;100.00
13954;BME280;7049;49.444;8.522;2023-01-25T09:36:03;80348.81;;;-3.47;100.00
13954;BME280;7049;49.444;8.522;2023-01-25T09:41:21;80348.81;;;-3.47;100.00
13954;BME280;7049;49.444;8.522;2023-01-25T09:46:38;80350.91;;;-3.47;99.98
13954;BME280;7049;49.444;8.522;2023-01-25T09:51:52;80350.91;;;-3.47;99.78
13954;BME280;7049;49.444;8.522;2023-01-25T09:56:57;80350.91;;;-3.47;99.57
13954;BME280;7049;49.444;8.522;2023-01-25T10:07:17;80334.16;;;-3.47;99.12
13954;BME280;7049;49.444;8.522;2023-01-25T10:12:22;80336.25;;;-3.47;98.98
13954;BME280;7049;49.444;8.522;2023-01-25T10:17:29;80327.88;;;-3.47;98.57
13954;BME280;7049;49.444;8.522;2023-01-25T10:22:42;80323.66;;;-3.47;97.90
13954;BME280;7049;49.444;8.522;2023-01-25T10:27:56;80317.38;;;-3.47;98.15
13954;BME280;7049;49.444;8.522;2023-01-25T10:33:08;80309.00;;;-3.47;98.35
13954;BME280;7049;49.444;8.522;2023-01-25T10:38:17;80300.63;;;-3.47;98.37
13954;BME280;7049;49.444;8.522;2023-01-25T10:43:21;80288.06;;;-3.47;97.87
13954;BME280;7049;49.444;8.522;2023-01-25T10:48:25;80292.25;;;-3.47;97.80
13954;BME280;7049;49.444;8.522;2023-01-25T10:53:31;80285.97;;;-3.47;98.22
13954;BME280;7049;49.444;8.522;2023-01-25T10:58:35;80271.31;;;-3.47;97.90
13954;BME280;7049;49.444;8.522;2023-01-25T11:03:38;80271.31;;;-3.47;97.71
13954;BME280;7049;49.444;8.522;2023-01-25T11:08:41;80265.03;;;-3.47;97.64
13954;BME280;7049;49.444;8.522;2023-01-25T11:13:43;80258.75;;;-3.47;97.35
13954;BME280;7049;49.444;8.522;2023-01-25T11:18:49;80248.28;;;-3.47;97.35
13954;BME280;7049;49.444;8.522;2023-01-25T11:24:01;80233.63;;;-3.47;97.42
13954;BME280;7049;49.444;8.522;2023-01-25T11:29:11;80229.44;;;-3.47;97.29
13954;BME280;7049;49.444;8.522;2023-01-25T11:34:15;80227.34;;;-3.47;97.50
13954;BME280;7049;49.444;8.522;2023-01-25T11:39:46;80214.78;;;-3.47;97.39
13954;BME280;7049;49.444;8.522;2023-01-25T11:50:21;80189.66;;;-3.47;96.96
13954;BME280;7049;49.444;8.522;2023-01-25T11:55:28;80185.47;;;-3.47;96.74
13954;BME280;7049;49.444;8.522;2023-01-25T12:00:44;80172.91;;;-3.47;97.15
13954;BME280;7049;49.444;8.522;2023-01-25T12:05:54;80162.44;;;-3.47;97.31
13954;BME280;7049;49.444;8.522;2023-01-25T12:11:08;80151.97;;;-3.47;97.03
13954;BME280;7049;49.444;8.522;2023-01-25T12:16:21;80143.59;;;-3.47;96.96
13954;BME280;7049;49.444;8.522;2023-01-25T12:21:39;80135.22;;;-3.47;96.83
13954;BME280;7049;49.444;8.522;2023-01-25T12:26:54;80124.75;;;-3.47;96.71
13954;BME280;7049;49.444;8.522;2023-01-25T12:32:04;80112.19;;;-3.47;96.10
13954;BME280;7049;49.444;8.522;2023-01-25T12:37:14;80093.34;;;-3.47;96.37
13954;BME280;7049;49.444;8.522;2023-01-25T12:42:21;80084.97;;;-3.47;96.69
13954;BME280;7049;49.444;8.522;2023-01-25T12:47:30;80076.59;;;-3.47;96.33
13954;BME280;7049;49.444;8.522;2023-01-25T12:52:38;80068.22;;;-3.47;96.34
13954;BME280;7049;49.444;8.522;2023-01-25T12:57:49;80057.75;;;-3.47;96.21
13954;BME280;7049;49.444;8.522;2023-01-25T13:03:17;80055.66;;;-3.47;96.06
13954;BME280;7049;49.444;8.522;2023-01-25T13:08:29;80047.28;;;-3.47;96.42
13954;BME280;7049;49.444;8.522;2023-01-25T13:13:36;80043.09;;;-3.47;96.64
13954;BME280;7049;49.444;8.522;2023-01-25T13:18:38;80032.63;;;-3.47;96.53
13954;BME280;7049;49.444;8.522;2023-01-25T13:23:42;80038.91;;;-3.47;96.08
13954;BME280;7049;49.444;8.522;2023-01-25T13:28:48;80034.72;;;-3.47;96.01
13954;BME280;7049;49.444;8.522;2023-01-25T13:33:50;80024.25;;;-3.47;96.18
13954;BME280;7049;49.444;8.522;2023-01-25T13:38:52;80020.06;;;-3.47;96.51
13954;BME280;7049;49.444;8.522;2023-01-25T13:44:18;80015.88;;;-3.47;96.04
13954;BME280;7049;49.444;8.522;2023-01-25T13:49:23;80011.69;;;-3.47;96.29
13954;BME280;7049;49.444;8.522;2023-01-25T13:54:28;80013.78;;;-3.47;96.11
13954;BME280;7049;49.444;8.522;2023-01-25T13:59:31;80003.31;;;-3.47;96.07
13954;BME280;7049;49.444;8.522;2023-01-25T14:04:32;79997.03;;;-3.47;95.89
13954;BME280;7049;49.444;8.522;2023-01-25T14:09:34;79988.66;;;-3.47;95.75
13954;BME280;7049;49.444;8.522;2023-01-25T14:14:38;79990.75;;;-3.47;96.04
13954;BME280;7049;49.444;8.522;2023-01-25T14:19:41;79982.38;;;-3.47;96.03
13954;BME280;7049;49.444;8.522;2023-01-25T14:24:43;79978.19;;;-3.47;96.01
13954;BME280;7049;49.444;8.522;2023-01-25T14:29:48;79984.47;;;-3.47;96.29
13954;BME280;7049;49.444;8.522;2023-01-25T14:34:49;79982.38;;;-3.47;96.33
13954;BME280;7049;49.444;8.522;2023-01-25T14:39:51;79967.72;;;-3.47;96.68
13954;BME280;7049;49.444;8.522;2023-01-25T14:44:54;79957.25;;;-3.47;96.63
13954;BME280;7049;49.444;8.522;2023-01-25T14:50:30;79957.25;;;-3.47;96.51
13954;BME280;7049;49.444;8.522;2023-01-25T14:55:31;79957.25;;;-3.47;96.73
13954;BME280;7049;49.444;8.522;2023-01-25T15:00:35;79953.06;;;-3.47;96.72
13954;BME280;7049;49.444;8.522;2023-01-25T15:05:43;79955.16;;;-3.47;96.61
13954;BME280;7049;49.444;8.522;2023-01-25T15:10:51;79948.88;;;-3.47;96.26
13954;BME280;7049;49.444;8.522;2023-01-25T15:15:55;79948.88;;;-3.47;96.26
13954;BME280;7049;49.444;8.522;2023-01-25T15:20:57;79942.59;;;-3.47;96.32
13954;BME280;7049;49.444;8.522;2023-01-25T15:25:59;79936.31;;;-3.47;96.57
13954;BME280;7049;49.444;8.522;2023-01-25T15:31:04;79923.75;;;-3.47;96.31
13954;BME280;7049;49.444;8.522;2023-01-25T15:36:08;79919.56;;;-3.47;96.04
13954;BME280;7049;49.444;8.522;2023-01-25T15:41:09;79919.56;;;-3.47;96.28
13954;BME280;7049;49.444;8.522;2023-01-25T15:46:16;79921.66;;;-3.47;96.34
13954;BME280;7049;49.444;8.522;2023-01-25T15:51:19;79930.03;;;-3.47;95.94
13954;BME280;7049;49.444;8.522;2023-01-25T15:56:23;79925.84;;;-3.47;96.14
13954;BME280;7049;49.444;8.522;2023-01-25T16:01:28;79927.94;;;-3.47;96.32
13954;BME280;7049;49.444;8.522;2023-01-25T16:06:37;79927.94;;;-3.47;96.28
13954;BME280;7049;49.444;8.522;2023-01-25T16:11:42;79925.84;;;-3.47;96.28
13954;BME280;7049;49.444;8.522;2023-01-25T16:16:47;79930.03;;;-3.47;96.03
13954;BME280;7049;49.444;8.522;2023-01-25T16:21:50;79932.13;;;-3.47;95.87
13954;BME280;7049;49.444;8.522;2023-01-25T16:26:55;79915.38;;;-3.47;96.50
13954;BME280;7049;49.444;8.522;2023-01-25T16:31:58;79936.31;;;-3.47;96.58
13954;BME280;7049;49.444;8.522;2023-01-25T16:37:01;79932.13;;;-3.47;96.77
13954;BME280;7049;49.444;8.522;2023-01-25T16:42:03;79932.13;;;-3.47;96.78
13954;BME280;7049;49.444;8.522;2023-01-25T16:47:05;79932.13;;;-3.47;96.73
13954;BME280;7049;49.444;8.522;2023-01-25T16:52:09;79936.31;;;-3.47;96.85
13954;BME280;7049;49.444;8.522;2023-01-25T16:57:11;79932.13;;;-3.47;96.39
13954;BME280;7049;49.444;8.522;2023-01-25T17:02:13;79927.94;;;-3.47;96.99
13954;BME280;7049;49.444;8.522;2023-01-25T17:07:15;79921.66;;;-3.47;97.29
13954;BME280;7049;49.444;8.522;2023-01-25T17:12:16;79919.56;;;-3.47;97.37
13954;BME280;7049;49.444;8.522;2023-01-25T17:17:19;79919.56;;;-3.47;96.97
13954;BME280;7049;49.444;8.522;2023-01-25T17:22:20;79917.47;;;-3.47;97.12
13954;BME280;7049;49.444;8.522;2023-01-25T17:27:22;79917.47;;;-3.47;97.33
13954;BME280;7049;49.444;8.522;2023-01-25T17:32:25;79919.56;;;-3.47;97.24
13954;BME280;7049;49.444;8.522;2023-01-25T17:37:27;79915.38;;;-3.47;97.05
13954;BME280;7049;49.444;8.522;2023-01-25T17:42:29;79907.00;;;-3.47;97.12
13954;BME280;7049;49.444;8.522;2023-01-25T17:47:32;79909.09;;;-3.47;96.74
13954;BME280;7049;49.444;8.522;2023-01-25T17:52:34;79904.91;;;-3.47;97.19
13954;BME280;7049;49.444;8.522;2023-01-25T17:57:36;79902.81;;;-3.47;97.05
13954;BME280;7049;49.444;8.522;2023-01-25T18:02:42;79898.63;;;-3.47;96.97
13954;BME280;7049;49.444;8.522;2023-01-25T18:07:44;79892.34;;;-3.47;96.82
13954;BME280;7049;49.444;8.522;2023-01-25T18:12:45;79890.25;;;-3.47;96.42
13954;BME280;7049;49.444;8.522;2023-01-25T18:17:51;79894.44;;;-3.47;96.17
13954;BME280;7049;49.444;8.522;2023-01-25T18:22:52;79890.25;;;-3.47;96.20
13954;BME280;7049;49.444;8.522;2023-01-25T18:27:54;79879.78;;;-3.47;96.52
13954;BME280;7049;49.444;8.522;2023-01-25T18:32:57;79883.97;;;-3.47;96.28
13954;BME280;7049;49.444;8.522;2023-01-25T18:37:58;79877.69;;;-3.47;96.66
13954;BME280;7049;49.444;8.522;2023-01-25T18:43:00;79873.50;;;-3.47;96.45
13954;BME280;7049;49.444;8.522;2023-01-25T18:48:04;79883.97;;;-3.47;95.60
13954;BME280;7049;49.444;8.522;2023-01-25T18:53:06;79877.69;;;-3.47;95.78
13954;BME280;7049;49.444;8.522;2023-01-25T18:58:08;79886.06;;;-3.47;96.03
13954;BME280;7049;49.444;8.522;2023-01-25T19:03:12;79881.88;;;-3.47;96.03
13954;BME280;7049;49.444;8.522;2023-01-25T19:08:14;79886.06;;;-3.47;95.87
13954;BME280;7049;49.444;8.522;2023-01-25T19:13:15;79873.50;;;-3.47;95.91
13954;BME280;7049;49.444;8.522;2023-01-25T19:18:18;79869.31;;;-3.47;96.39
13954;BME280;7049;49.444;8.522;2023-01-25T19:23:20;79865.13;;;-3.47;96.41
13954;BME280;7049;49.444;8.522;2023-01-25T19:28:23;79860.94;;;-3.47;96.58
13954;BME280;7049;49.444;8.522;2023-01-25T19:33:27;79854.66;;;-3.47;97.28
13954;BME280;7049;49.444;8.522;2023-01-25T19:38:29;79856.75;;;-3.47;97.28
13954;BME280;7049;49.444;8.522;2023-01-25T19:43:33;79852.56;;;-3.47;97.23
13954;BME280;7049;49.444;8.522;2023-01-25T19:48:36;79854.66;;;-3.47;96.86
13954;BME280;7049;49.444;8.522;2023-01-25T19:53:40;79846.28;;;-3.47;97.20
13954;BME280;7049;49.444;8.522;2023-01-25T19:58:51;79844.19;;;-3.47;97.53
13954;BME280;7049;49.444;8.522;2023-01-25T20:03:55;79835.81;;;-3.47;97.53
13954;BME280;7049;49.444;8.522;2023-01-25T20:08:58;79831.63;;;-3.47;97.51
13954;BME280;7049;49.444;8.522;2023-01-25T20:14:00;79831.63;;;-3.47;97.53
13954;BME280;7049;49.444;8.522;2023-01-25T20:19:06;79825.34;;;-3.47;97.59
13954;BME280;7049;49.444;8.522;2023-01-25T20:24:08;79821.16;;;-3.47;96.96
13954;BME280;7049;49.444;8.522;2023-01-25T20:29:11;79821.16;;;-3.47;97.23
13954;BME280;7049;49.444;8.522;2023-01-25T20:34:16;79816.97;;;-3.47;96.80
13954;BME280;7049;49.444;8.522;2023-01-25T20:39:20;79814.88;;;-3.47;96.81
13954;BME280;7049;49.444;8.522;2023-01-25T20:44:22;79814.88;;;-3.47;97.06
13954;BME280;7049;49.444;8.522;2023-01-25T20:49:24;79806.50;;;-3.47;96.72
13954;BME280;7049;49.444;8.522;2023-01-25T20:54:28;79798.13;;;-3.47;97.05
13954;BME280;7049;49.444;8.522;2023-01-25T20:59:31;79802.31;;;-3.47;97.19
13954;BME280;7049;49.444;8.522;2023-01-25T21:04:34;79798.13;;;-3.47;96.77
13954;BME280;7049;49.444;8.522;2023-01-25T21:09:35;79804.41;;;-3.47;97.24
13954;BME280;7049;49.444;8.522;2023-01-25T21:14:37;79793.94;;;-3.47;97.24
13954;BME280;7049;49.444;8.522;2023-01-25T21:19:39;79787.66;;;-3.47;97.44
13954;BME280;7049;49.444;8.522;2023-01-25T21:24:41;79789.75;;;-3.47;97.37
13954;BME280;7049;49.444;8.522;2023-01-25T21:29:42;79791.84;;;-3.47;97.27
13954;BME280;7049;49.444;8.522;2023-01-25T21:34:46;79791.84;;;-3.47;97.18
13954;BME280;7049;49.444;8.522;2023-01-25T21:39:47;79789.75;;;-3.47;97.40
13954;BME280;7049;49.444;8.522;2023-01-25T21:44:48;79789.75;;;-3.47;97.50
13954;BME280;7049;49.444;8.522;2023-01-25T21:50:09;79789.75;;;-3.47;97.85
13954;BME280;7049;49.444;8.522;2023-01-25T21:55:28;79783.47;;;-3.47;97.79
13954;BME280;7049;49.444;8.522;2023-01-25T22:00:30;79779.28;;;-3.47;97.83
13954;BME280;7049;49.444;8.522;2023-01-25T22:05:33;79781.38;;;-3.47;97.73
13954;BME280;7049;49.444;8.522;2023-01-25T22:10:34;79777.19;;;-3.47;97.65
13954;BME280;7049;49.444;8.522;2023-01-25T22:15:36;79773.00;;;-3.47;97.99
13954;BME280;7049;49.444;8.522;2023-01-25T22:20:38;79766.72;;;-3.47;98.10
13954;BME280;7049;49.444;8.522;2023-01-25T22:25:40;79773.00;;;-3.47;98.37
13954;BME280;7049;49.444;8.522;2023-01-25T22:30:41;79779.28;;;-3.47;97.70
13954;BME280;7049;49.444;8.522;2023-01-25T22:35:44;79777.19;;;-3.47;97.42
13954;BME280;7049;49.444;8.522;2023-01-25T22:40:45;79775.09;;;-3.47;97.41
13954;BME280;7049;49.444;8.522;2023-01-25T22:45:48;79760.44;;;-3.47;97.59
13954;BME280;7049;49.444;8.522;2023-01-25T22:50:51;79762.53;;;-3.47;96.93
13954;BME280;7049;49.444;8.522;2023-01-25T22:55:58;79756.25;;;-3.47;97.32
13954;BME280;7049;49.444;8.522;2023-01-25T23:00:59;79747.88;;;-3.47;97.43
13954;BME280;7049;49.444;8.522;2023-01-25T23:06:04;79737.41;;;-3.47;97.15
13954;BME280;7049;49.444;8.522;2023-01-25T23:11:07;79731.13;;;-3.47;97.68
13954;BME280;7049;49.444;8.522;2023-01-25T23:16:09;79726.94;;;-3.47;97.43
13954;BME280;7049;49.444;8.522;2023-01-25T23:21:22;79718.56;;;-3.47;97.26
13954;BME280;7049;49.444;8.522;2023-01-25T23:26:25;79716.47;;;-3.47;97.32
13954;BME280;7049;49.444;8.522;2023-01-25T23:31:26;79716.47;;;-3.47;97.55
13954;BME280;7049;49.444;8.522;2023-01-25T23:36:30;79710.19;;;-3.47;97.02
13954;BME280;7049;49.444;8.522;2023-01-25T23:41:32;79708.09;;;-3.47;97.09
13954;BME280;7049;49.444;8.522;2023-01-25T23:46:34;79701.81;;;-3.47;97.28
13954;BME280;7049;49.444;8.522;2023-01-25T23:51:37;79693.44;;;-3.47;97.20
13954;BME280;7049;49.444;8.522;2023-01-25T23:56:38;79693.44;;;-3.47;97.10
